Time;durP1;ratioP1;P1;durP2;ratioP2;P2;SDS_P1;SDS_P2;PMS_P1;PMS_P2;Temp;Humidity;BMP_temperature;BMP_pressure;BME280_temperature;BME280_humidity;BME280_pressure;Samples;Min_cycle;Max_cycle;Signal;HPM_P1;HPM_P2
2023/03/16 00:01:15;;;;;;;7.43;3.85;;;128.20;2252.80;;;;;;5053062;28;20064;-79
2023/03/16 00:03:41;;;;;;;5.07;3.30;;;128.10;2252.80;;;;;;5053088;28;20029;-80
2023/03/16 00:06:07;;;;;;;11.05;4.88;;;128.20;2252.80;;;;;;5053003;28;20535;-80
2023/03/16 00:08:34;;;;;;;5.60;3.13;;;128.10;2252.80;;;;;;5053761;28;20051;-80
2023/03/16 00:11:02;;;;;;;5.95;3.45;;;128.00;2252.80;;;;;;5053757;28;20049;-81
2023/03/16 00:13:28;;;;;;;5.95;2.83;;;128.10;2252.80;;;;;;5053759;28;20445;-81
2023/03/16 00:15:55;;;;;;;8.55;4.15;;;128.00;2252.80;;;;;;5052610;28;20064;-81
2023/03/16 00:18:26;;;;;;;11.52;4.85;;;128.10;2252.80;;;;;;5052571;28;20508;-81
2023/03/16 00:20:57;;;;;;;8.20;4.07;;;128.10;2252.80;;;;;;5052560;28;20036;-81
2023/03/16 00:23:27;;;;;;;6.40;3.20;;;128.10;2252.80;;;;;;5052416;28;20033;-81
2023/03/16 00:25:54;;;;;;;4.25;2.10;;;128.00;2252.80;;;;;;5052255;28;20033;-82
2023/03/16 00:28:20;;;;;;;5.25;2.60;;;128.00;2252.80;;;;;;5039796;28;20033;-79
2023/03/16 00:30:47;;;;;;;4.95;2.88;;;103.30;2227.20;;;;;;5032442;28;20576;-82
2023/03/16 00:33:12;;;;;;;6.88;3.70;;;128.00;2252.80;;;;;;5031495;28;20043;-81
2023/03/16 00:35:38;;;;;;;5.07;2.58;;;103.30;2227.20;;;;;;5033521;28;20112;-83
2023/03/16 00:38:04;;;;;;;4.65;2.50;;;103.30;2227.20;;;;;;5032777;28;20065;-82
2023/03/16 00:40:29;;;;;;;9.55;3.70;;;103.30;2227.20;;;;;;5032555;28;20484;-82
2023/03/16 00:42:56;;;;;;;7.43;3.03;;;103.30;2227.20;;;;;;5032500;28;20036;-82
2023/03/16 00:45:22;;;;;;;5.70;3.13;;;103.30;2227.20;;;;;;5032834;28;20111;-83
2023/03/16 00:47:48;;;;;;;5.45;3.38;;;103.30;2227.20;;;;;;5032602;28;20432;-81
2023/03/16 00:50:14;;;;;;;5.78;2.83;;;103.20;2227.20;;;;;;5032378;28;20087;-81
2023/03/16 00:52:41;;;;;;;5.53;2.83;;;103.20;2227.20;;;;;;5032472;28;20060;-82
2023/03/16 00:55:07;;;;;;;6.28;2.83;;;103.20;2227.20;;;;;;5032413;28;20033;-82
2023/03/16 00:57:33;;;;;;;4.85;2.40;;;103.10;2227.20;;;;;;5031960;28;20065;-82
2023/03/16 01:00:03;;;;;;;5.25;2.88;;;103.10;2227.20;;;;;;5031501;28;20469;-83
2023/03/16 01:02:29;;;;;;;7.28;3.38;;;103.20;2227.20;;;;;;5031950;28;20025;-80
2023/03/16 01:04:55;;;;;;;9.20;4.30;;;103.30;2227.20;;;;;;5032183;28;20033;-82
2023/03/16 01:07:21;;;;;;;7.07;3.28;;;103.20;2227.20;;;;;;5033441;28;20030;-82
2023/03/16 01:09:47;;;;;;;4.47;2.60;;;103.30;2227.20;;;;;;5032124;28;20488;-80
2023/03/16 01:12:17;;;;;;;8.93;4.28;;;103.30;2227.20;;;;;;5035451;28;20040;-80
2023/03/16 01:14:46;;;;;;;7.63;3.33;;;103.30;2227.20;;;;;;5052043;28;20389;-80
2023/03/16 01:17:13;;;;;;;7.28;3.30;;;103.30;2227.20;;;;;;5052096;28;20088;-80
2023/03/16 01:19:40;;;;;;;5.25;3.17;;;103.30;2227.20;;;;;;5052787;28;20457;-76
2023/03/16 01:22:08;;;;;;;6.35;4.15;;;103.30;2227.20;;;;;;5052001;28;20116;-78
2023/03/16 01:24:34;;;;;;;6.88;3.53;;;103.30;2227.20;;;;;;5053173;28;20029;-77
2023/03/16 01:27:01;;;;;;;5.45;3.05;;;103.20;2227.20;;;;;;5052263;28;20044;-80
2023/03/16 01:29:27;;;;;;;10.95;4.72;;;103.30;2227.20;;;;;;5051902;28;20025;-80
2023/03/16 01:31:54;;;;;;;10.75;4.32;;;128.00;2252.80;;;;;;5051902;28;20040;-79
2023/03/16 01:34:20;;;;;;;4.20;2.38;;;128.00;2252.80;;;;;;5053820;28;20144;-79
2023/03/16 01:36:48;;;;;;;9.77;4.13;;;103.30;2227.20;;;;;;5055382;28;20037;-80
2023/03/16 01:39:14;;;;;;;7.00;3.20;;;103.30;2227.20;;;;;;5055516;28;20453;-78
2023/03/16 01:41:41;;;;;;;13.88;5.70;;;103.30;2227.20;;;;;;5055612;28;20036;-79
2023/03/16 01:44:13;;;;;;;3.97;2.20;;;103.30;2227.20;;;;;;5055519;28;20075;-80
2023/03/16 01:46:40;;;;;;;4.57;2.30;;;103.30;2227.20;;;;;;5055503;28;20029;-79
2023/03/16 01:49:25;;;;;;;6.13;3.03;;;103.30;2227.20;;;;;;5055392;28;20040;-78
2023/03/16 01:51:57;;;;;;;6.18;2.85;;;103.20;2227.20;;;;;;5055632;28;20025;-80
2023/03/16 01:54:34;;;;;;;4.85;2.70;;;103.30;2227.20;;;;;;5055145;28;20075;-81
2023/03/16 01:57:11;;;;;;;13.30;6.32;;;103.20;2227.20;;;;;;5055550;28;20056;-81
2023/03/16 02:00:17;;;;;;;9.93;5.20;;;103.20;2227.20;;;;;;5055287;28;20031;-78
2023/03/16 02:02:47;;;;;;;7.97;4.30;;;103.20;2227.20;;;;;;5055370;28;20120;-79
2023/03/16 02:05:32;;;;;;;8.65;3.65;;;103.20;2227.20;;;;;;5055148;28;20074;-80
2023/03/16 02:07:59;;;;;;;6.05;2.97;;;103.20;2227.20;;;;;;5055331;28;20110;-80
2023/03/16 02:10:27;;;;;;;5.65;2.40;;;103.10;2227.20;;;;;;5054674;28;20084;-79
2023/03/16 02:12:54;;;;;;;5.63;2.60;;;103.10;2227.20;;;;;;5055045;28;20473;-77
2023/03/16 02:15:20;;;;;;;4.95;2.45;;;103.10;2227.20;;;;;;5054794;28;20032;-80
2023/03/16 02:17:48;;;;;;;4.63;2.30;;;103.20;2227.20;;;;;;5054821;28;20028;-78
2023/03/16 02:20:34;;;;;;;9.35;3.33;;;103.10;2227.20;;;;;;5055103;28;20035;-80
2023/03/16 02:23:02;;;;;;;5.32;2.50;;;103.20;2227.20;;;;;;5054984;28;20540;-80
2023/03/16 02:25:41;;;;;;;4.25;2.40;;;103.10;2227.20;;;;;;5054790;28;20112;-79
2023/03/16 02:28:12;;;;;;;5.40;3.08;;;103.20;2227.20;;;;;;5056011;28;20091;-80
2023/03/16 02:30:38;;;;;;;10.38;4.57;;;103.20;2227.20;;;;;;5054872;28;20079;-80
2023/03/16 02:33:04;;;;;;;4.80;2.25;;;103.30;2227.20;;;;;;5054648;28;20029;-80
2023/03/16 02:35:31;;;;;;;5.63;3.30;;;103.20;2227.20;;;;;;5054593;28;20083;-81
2023/03/16 02:37:56;;;;;;;6.75;3.45;;;103.20;2227.20;;;;;;5054862;28;20380;-81
2023/03/16 02:40:29;;;;;;;7.20;4.90;;;103.30;2227.20;;;;;;5054500;28;20029;-81
2023/03/16 02:43:03;;;;;;;3.58;1.92;;;103.20;2227.20;;;;;;5055701;28;20094;-80
2023/03/16 02:45:45;;;;;;;5.97;3.03;;;103.20;2227.20;;;;;;5053324;28;20424;-80
2023/03/16 02:48:23;;;;;;;4.55;2.85;;;103.20;2227.20;;;;;;5054699;28;20029;-81
2023/03/16 02:50:51;;;;;;;5.80;3.20;;;103.20;2227.20;;;;;;5053817;28;20039;-81
2023/03/16 02:53:18;;;;;;;4.22;2.40;;;103.20;2227.20;;;;;;5054149;28;20497;-79
2023/03/16 02:55:45;;;;;;;4.93;2.40;;;103.10;2227.20;;;;;;5053440;28;20029;-79
2023/03/16 02:58:12;;;;;;;3.83;2.40;;;103.10;2227.20;;;;;;5054495;28;20121;-80
2023/03/16 03:00:39;;;;;;;4.30;2.17;;;103.10;2227.20;;;;;;5054173;28;20052;-81
2023/03/16 03:03:07;;;;;;;4.22;2.17;;;103.00;2227.20;;;;;;5054191;28;20068;-80
2023/03/16 03:05:33;;;;;;;4.72;2.85;;;103.00;2227.20;;;;;;5054094;28;20032;-79
2023/03/16 03:07:58;;;;;;;4.97;2.80;;;103.00;2227.20;;;;;;5054096;28;20112;-78
2023/03/16 03:10:24;;;;;;;6.13;3.92;;;103.00;2227.20;;;;;;5053281;28;20060;-81
2023/03/16 03:12:50;;;;;;;4.68;2.63;;;103.00;2227.20;;;;;;5055186;28;20025;-80
2023/03/16 03:15:17;;;;;;;12.02;5.72;;;103.00;2227.20;;;;;;5053947;28;20044;-81
2023/03/16 03:17:43;;;;;;;8.48;4.75;;;103.00;2227.20;;;;;;5053918;28;20032;-79
2023/03/16 03:20:17;;;;;;;5.28;3.03;;;103.10;2227.20;;;;;;5053905;28;20372;-80
2023/03/16 03:22:46;;;;;;;7.65;3.75;;;103.10;2227.20;;;;;;5053963;28;20056;-79
2023/03/16 03:25:14;;;;;;;5.68;3.22;;;103.10;2227.20;;;;;;5053513;28;20029;-80
2023/03/16 03:27:41;;;;;;;7.35;3.83;;;103.10;2227.20;;;;;;5053800;28;20029;-81
2023/03/16 03:30:12;;;;;;;5.30;3.28;;;103.10;2227.20;;;;;;5053622;28;20032;-80
2023/03/16 03:32:39;;;;;;;5.00;3.13;;;103.10;2227.20;;;;;;5053418;28;20035;-80
2023/03/16 03:35:05;;;;;;;7.75;3.28;;;103.10;2227.20;;;;;;5054712;28;20029;-80
2023/03/16 03:37:31;;;;;;;5.00;3.13;;;103.10;2227.20;;;;;;5053450;28;20071;-80
2023/03/16 03:39:57;;;;;;;4.50;2.97;;;103.10;2227.20;;;;;;5053548;28;20192;-80
2023/03/16 03:42:23;;;;;;;6.60;3.38;;;103.00;2227.20;;;;;;5054609;28;20040;-80
2023/03/16 03:44:50;;;;;;;7.43;3.83;;;103.10;2227.20;;;;;;5053270;28;20025;-80
2023/03/16 03:47:18;;;;;;;5.68;3.28;;;103.20;2227.20;;;;;;5054251;28;20032;-79
2023/03/16 03:49:43;;;;;;;5.78;3.33;;;103.20;2227.20;;;;;;5053286;28;20055;-79
2023/03/16 03:52:10;;;;;;;6.68;3.90;;;103.10;2227.20;;;;;;5053121;28;20465;-79
2023/03/16 03:54:36;;;;;;;8.95;5.05;;;103.20;2227.20;;;;;;5053222;28;20082;-79
2023/03/16 03:57:02;;;;;;;4.93;3.58;;;103.30;2227.20;;;;;;5052527;28;20120;-79
2023/03/16 03:59:28;;;;;;;5.38;3.42;;;103.30;2227.20;;;;;;5052982;28;20119;-80
2023/03/16 04:01:53;;;;;;;5.82;3.60;;;128.10;2252.80;;;;;;5053457;28;20032;-78
2023/03/16 04:04:20;;;;;;;4.20;2.80;;;103.20;2227.20;;;;;;5052822;28;20028;-79
2023/03/16 04:06:46;;;;;;;4.70;2.50;;;103.20;2227.20;;;;;;5054221;28;20024;-80
2023/03/16 04:09:12;;;;;;;4.40;3.60;;;103.20;2227.20;;;;;;5052777;28;20358;-79
2023/03/16 04:11:38;;;;;;;5.30;3.10;;;103.20;2227.20;;;;;;5052975;28;20440;-77
2023/03/16 04:14:04;;;;;;;5.93;3.25;;;103.30;2227.20;;;;;;5053921;28;20021;-80
2023/03/16 04:16:31;;;;;;;4.53;2.70;;;103.20;2227.20;;;;;;5052744;28;20120;-79
2023/03/16 04:18:56;;;;;;;4.90;3.13;;;103.10;2227.20;;;;;;5052806;28;20021;-79
2023/03/16 04:21:23;;;;;;;5.88;3.85;;;103.10;2227.20;;;;;;5052676;28;20070;-78
2023/03/16 04:23:53;;;;;;;5.47;3.88;;;103.10;2227.20;;;;;;5052968;28;20035;-81
2023/03/16 04:26:20;;;;;;;4.60;2.88;;;103.10;2227.20;;;;;;5052799;28;20358;-81
2023/03/16 04:28:46;;;;;;;9.32;5.30;;;103.10;2227.20;;;;;;5052046;28;20032;-80
2023/03/16 04:31:12;;;;;;;4.68;3.38;;;103.20;2227.20;;;;;;5052420;28;20079;-80
2023/03/16 04:33:39;;;;;;;6.30;3.58;;;103.10;2227.20;;;;;;5052463;28;20441;-79
2023/03/16 04:36:06;;;;;;;7.10;4.30;;;103.00;2227.20;;;;;;5052434;28;20123;-80
2023/03/16 04:38:33;;;;;;;5.50;4.07;;;102.90;2227.20;;;;;;5052442;28;20064;-80
2023/03/16 04:41:00;;;;;;;6.28;4.53;;;103.00;2227.20;;;;;;5053442;28;20465;-79
2023/03/16 04:43:26;;;;;;;11.73;6.63;;;103.00;2227.20;;;;;;5053766;28;20078;-77
2023/03/16 04:45:52;;;;;;;6.97;4.35;;;103.00;2227.20;;;;;;5053857;28;20071;-79
2023/03/16 04:48:17;;;;;;;7.68;4.82;;;103.10;2227.20;;;;;;5052213;28;20033;-79
2023/03/16 04:50:44;;;;;;;7.70;4.43;;;103.00;2227.20;;;;;;5039438;28;20472;-80
2023/03/16 04:53:10;;;;;;;7.10;4.28;;;103.10;2227.20;;;;;;5031742;28;20036;-80
2023/03/16 04:55:35;;;;;;;8.60;5.47;;;103.00;2227.20;;;;;;5031253;28;20030;-80
2023/03/16 04:58:01;;;;;;;16.30;7.90;;;103.00;2227.20;;;;;;5031621;28;20049;-80
2023/03/16 05:00:27;;;;;;;6.85;4.70;;;103.00;2227.20;;;;;;5031533;28;20116;-80
2023/03/16 05:02:53;;;;;;;11.18;6.57;;;103.00;2227.20;;;;;;5031319;28;20052;-79
2023/03/16 05:05:20;;;;;;;9.40;5.20;;;103.00;2227.20;;;;;;5032256;28;20029;-81
2023/03/16 05:07:46;;;;;;;7.38;4.53;;;103.00;2227.20;;;;;;5032311;28;20061;-81
2023/03/16 05:10:15;;;;;;;6.03;4.00;;;103.00;2227.20;;;;;;5034920;28;20386;-80
2023/03/16 05:12:40;;;;;;;9.27;6.45;;;102.90;2227.20;;;;;;5036231;28;20476;-81
2023/03/16 05:15:08;;;;;;;20.10;12.90;;;102.90;2227.20;;;;;;5037618;28;20033;-80
2023/03/16 05:17:34;;;;;;;17.90;12.70;;;103.00;2227.20;;;;;;5036123;28;20029;-80
2023/03/16 05:20:00;;;;;;;18.42;11.48;;;103.00;2227.20;;;;;;5036336;28;20028;-80
2023/03/16 05:22:25;;;;;;;20.92;12.00;;;103.00;2227.20;;;;;;5036428;28;20447;-81
2023/03/16 05:24:51;;;;;;;20.00;12.13;;;103.00;2227.20;;;;;;5037274;28;20064;-79
2023/03/16 05:27:17;;;;;;;16.23;8.65;;;103.10;2227.20;;;;;;5036268;28;20057;-80
2023/03/16 05:29:45;;;;;;;14.65;8.15;;;103.00;2227.20;;;;;;5037287;28;20380;-81
2023/03/16 05:32:11;;;;;;;9.18;6.22;;;103.10;2227.20;;;;;;5036417;28;20042;-80
2023/03/16 05:34:37;;;;;;;17.50;9.10;;;103.00;2227.20;;;;;;5036878;28;20057;-80
2023/03/16 05:37:03;;;;;;;9.85;5.72;;;103.10;2227.20;;;;;;5035844;28;20559;-80
2023/03/16 05:39:29;;;;;;;11.10;6.85;;;103.00;2227.20;;;;;;5036427;28;20033;-81
2023/03/16 05:41:58;;;;;;;9.55;6.65;;;103.00;2227.20;;;;;;5035898;28;20030;-81
2023/03/16 05:44:24;;;;;;;12.80;7.97;;;103.00;2227.20;;;;;;5037370;28;20033;-80
2023/03/16 05:46:50;;;;;;;10.75;7.72;;;103.10;2227.20;;;;;;5037513;28;20179;-81
2023/03/16 05:49:16;;;;;;;12.15;7.55;;;103.10;2227.20;;;;;;5035829;28;20025;-79
2023/03/16 05:51:42;;;;;;;10.10;6.47;;;103.10;2227.20;;;;;;5035631;28;20056;-81
2023/03/16 05:54:07;;;;;;;13.10;8.40;;;103.10;2227.20;;;;;;5048432;28;20052;-81
2023/03/16 05:56:33;;;;;;;9.55;6.20;;;103.10;2227.20;;;;;;5060689;28;20060;-79
2023/03/16 05:58:59;;;;;;;10.30;6.32;;;103.00;2227.20;;;;;;5071628;28;20459;-78
2023/03/16 06:01:25;;;;;;;9.00;6.13;;;103.10;2227.20;;;;;;5061807;28;20025;-79
2023/03/16 06:03:51;;;;;;;8.20;5.90;;;103.10;2227.20;;;;;;5056469;28;20036;-80
2023/03/16 06:06:18;;;;;;;9.88;6.18;;;103.00;2227.20;;;;;;5056712;28;20389;-81
2023/03/16 06:08:44;;;;;;;8.73;5.90;;;103.00;2227.20;;;;;;5058224;28;20029;-81
2023/03/16 06:11:10;;;;;;;7.53;5.38;;;103.00;2227.20;;;;;;5055629;28;20056;-81
2023/03/16 06:13:38;;;;;;;11.27;7.22;;;103.00;2227.20;;;;;;5055256;28;20028;-80
2023/03/16 06:16:05;;;;;;;30.45;16.92;;;103.10;2227.20;;;;;;5056408;28;20032;-80
2023/03/16 06:18:31;;;;;;;64.05;33.97;;;103.10;2227.20;;;;;;5056084;28;20075;-78
2023/03/16 06:20:57;;;;;;;57.00;27.25;;;103.10;2227.20;;;;;;5054523;28;20029;-81
2023/03/16 06:23:23;;;;;;;13.98;8.70;;;103.10;2227.20;;;;;;5054963;28;20036;-81
2023/03/16 06:25:50;;;;;;;30.05;16.63;;;103.00;2227.20;;;;;;5054809;28;20029;-80
2023/03/16 06:28:16;;;;;;;16.58;9.30;;;103.10;2227.20;;;;;;5049887;28;20029;-80
2023/03/16 06:30:42;;;;;;;15.85;9.15;;;103.00;2227.20;;;;;;5051224;28;20091;-79
2023/03/16 06:33:07;;;;;;;20.20;11.40;;;103.10;2227.20;;;;;;5050618;28;20041;-80
2023/03/16 06:35:33;;;;;;;20.42;11.75;;;103.20;2227.20;;;;;;5051545;28;20420;-80
2023/03/16 06:37:59;;;;;;;14.55;9.57;;;103.20;2227.20;;;;;;5051319;28;20544;-80
2023/03/16 06:40:25;;;;;;;13.60;8.25;;;103.10;2227.20;;;;;;5051199;28;20033;-79
2023/03/16 06:42:51;;;;;;;18.00;10.32;;;103.20;2227.20;;;;;;5051425;28;20068;-81
2023/03/16 06:45:20;;;;;;;11.82;7.10;;;103.20;2227.20;;;;;;5051296;28;20025;-80
2023/03/16 06:47:45;;;;;;;8.88;6.85;;;103.20;2227.20;;;;;;5051026;28;20389;-78
2023/03/16 06:50:12;;;;;;;12.32;8.85;;;103.20;2227.20;;;;;;5051167;28;20028;-82
2023/03/16 06:52:38;;;;;;;15.27;11.95;;;103.20;2227.20;;;;;;5035854;28;20022;-81
2023/03/16 06:55:04;;;;;;;14.30;9.73;;;103.30;2227.20;;;;;;5050974;28;20388;-80
2023/03/16 06:57:30;;;;;;;9.05;6.50;;;103.30;2227.20;;;;;;5050695;28;20120;-81
2023/03/16 06:59:56;;;;;;;8.70;5.65;;;103.30;2227.20;;;;;;5053440;28;20053;-82
2023/03/16 07:02:22;;;;;;;10.93;5.70;;;103.30;2227.20;;;;;;5053642;28;20029;-80
2023/03/16 07:04:48;;;;;;;9.98;6.25;;;103.20;2227.20;;;;;;5053983;28;20033;-81
2023/03/16 07:07:15;;;;;;;12.45;8.05;;;103.20;2227.20;;;;;;5054274;28;20032;-81
2023/03/16 07:09:42;;;;;;;11.20;7.10;;;103.30;2227.20;;;;;;5053492;28;20044;-80
2023/03/16 07:12:09;;;;;;;10.50;6.70;;;103.30;2227.20;;;;;;5054288;28;20117;-80
2023/03/16 07:14:34;;;;;;;7.68;5.45;;;103.20;2227.20;;;;;;5053807;28;20044;-81
2023/03/16 07:17:00;;;;;;;10.45;6.25;;;103.20;2227.20;;;;;;5053974;28;20029;-81
2023/03/16 07:19:27;;;;;;;11.23;6.57;;;103.20;2227.20;;;;;;5053950;28;20029;-81
2023/03/16 07:21:53;;;;;;;16.30;9.15;;;103.20;2227.20;;;;;;5053649;28;20033;-81
2023/03/16 07:24:19;;;;;;;14.65;8.25;;;103.30;2227.20;;;;;;5054006;28;20036;-81
2023/03/16 07:26:45;;;;;;;16.70;9.73;;;103.20;2227.20;;;;;;5053740;28;20024;-81
2023/03/16 07:29:12;;;;;;;11.77;7.32;;;103.30;2227.20;;;;;;5053748;28;20025;-81
2023/03/16 07:31:39;;;;;;;12.40;7.22;;;128.00;2252.80;;;;;;5054505;28;20059;-81
2023/03/16 07:34:05;;;;;;;12.30;8.10;;;128.10;2252.80;;;;;;5053454;28;20040;-81
2023/03/16 07:36:31;;;;;;;13.38;8.43;;;103.30;2227.20;;;;;;5053489;28;20036;-81
2023/03/16 07:38:57;;;;;;;10.98;6.82;;;103.30;2227.20;;;;;;5053611;28;20389;-77
2023/03/16 07:41:24;;;;;;;11.45;7.40;;;103.30;2227.20;;;;;;5053522;28;20036;-81
2023/03/16 07:43:50;;;;;;;16.48;9.85;;;103.30;2227.20;;;;;;5054205;28;20032;-79
2023/03/16 07:46:15;;;;;;;13.70;9.02;;;103.30;2227.20;;;;;;5052968;28;20469;-79
2023/03/16 07:48:43;;;;;;;13.25;8.77;;;103.30;2227.20;;;;;;5054907;28;20032;-79
2023/03/16 07:51:10;;;;;;;18.40;11.75;;;128.00;2252.80;;;;;;5052549;28;20110;-81
2023/03/16 07:53:36;;;;;;;13.02;9.63;;;128.00;2252.80;;;;;;5054272;28;20024;-79
2023/03/16 07:56:02;;;;;;;23.13;15.52;;;128.10;2252.80;;;;;;5052448;28;20056;-79
2023/03/16 07:58:28;;;;;;;14.18;9.25;;;128.10;2252.80;;;;;;5053013;28;20056;-79
2023/03/16 08:00:58;;;;;;;21.42;13.18;;;128.20;2252.80;;;;;;5052725;28;20029;-80
2023/03/16 08:03:25;;;;;;;16.90;10.43;;;128.30;2252.80;;;;;;5052318;28;20146;-80
2023/03/16 08:05:52;;;;;;;11.57;7.93;;;128.30;2252.80;;;;;;5052975;28;20060;-79
2023/03/16 08:08:19;;;;;;;15.88;10.57;;;128.30;2252.80;;;;;;5053766;28;20047;-80
2023/03/16 08:10:53;;;;;;;27.70;19.05;;;128.40;2252.80;;;;;;5050926;28;20484;-80
2023/03/16 08:13:19;;;;;;;36.33;23.20;;;128.40;2252.80;;;;;;5052233;28;20025;-78
2023/03/16 08:15:46;;;;;;;24.63;16.70;;;128.50;2252.80;;;;;;5051716;28;20071;-79
2023/03/16 08:18:12;;;;;;;19.50;12.73;;;128.60;2252.80;;;;;;5052788;28;20031;-79
2023/03/16 08:20:38;;;;;;;18.48;12.45;;;128.60;2252.80;;;;;;5052768;28;20050;-79
2023/03/16 08:23:04;;;;;;;21.63;13.52;;;128.50;2252.80;;;;;;5052598;28;20513;-79
2023/03/16 08:25:29;;;;;;;16.30;10.07;;;128.60;2252.80;;;;;;5052625;28;20021;-80
2023/03/16 08:27:56;;;;;;;20.80;13.02;;;128.70;2252.80;;;;;;5052897;28;20696;-79
2023/03/16 08:30:24;;;;;;;17.13;10.63;;;128.70;2252.80;;;;;;5052571;28;20028;-79
2023/03/16 08:32:49;;;;;;;18.05;12.88;;;128.80;2252.80;;;;;;5052487;28;20373;-80
2023/03/16 08:35:16;;;;;;;14.23;10.80;;;128.70;2252.80;;;;;;5052554;28;20040;-79
2023/03/16 08:37:42;;;;;;;23.13;14.13;;;128.70;2252.80;;;;;;5052479;28;20457;-80
2023/03/16 08:40:12;;;;;;;24.52;16.73;;;128.80;2252.80;;;;;;5052387;28;20025;-79
2023/03/16 08:42:38;;;;;;;28.70;16.52;;;128.80;2252.80;;;;;;5051696;28;20033;-80
2023/03/16 08:45:11;;;;;;;22.85;16.00;;;128.90;2252.80;;;;;;5052012;28;20025;-80
2023/03/16 08:47:39;;;;;;;12.82;9.27;;;128.90;2252.80;;;;;;5052274;28;20534;-80
2023/03/16 08:50:06;;;;;;;15.60;9.18;;;128.80;2252.80;;;;;;5052305;28;20564;-79
2023/03/16 08:52:35;;;;;;;14.52;10.07;;;128.80;2252.80;;;;;;5052247;28;20468;-80
2023/03/16 08:55:04;;;;;;;13.85;9.77;;;128.90;2252.80;;;;;;5052249;28;20060;-80
2023/03/16 08:57:31;;;;;;;11.40;8.68;;;128.90;2252.80;;;;;;5052217;28;20469;-81
2023/03/16 08:59:57;;;;;;;21.40;14.98;;;128.90;2252.80;;;;;;5052101;28;20083;-80
2023/03/16 09:02:24;;;;;;;37.40;25.80;;;153.60;2252.80;;;;;;5052428;28;20029;-80
2023/03/16 09:04:51;;;;;;;17.10;11.45;;;153.60;2252.80;;;;;;5052190;28;20029;-79
2023/03/16 09:07:17;;;;;;;13.38;9.23;;;153.70;2252.80;;;;;;5051983;28;20384;-79
2023/03/16 09:09:45;;;;;;;17.15;10.82;;;153.60;2252.80;;;;;;5051980;28;20448;-80
2023/03/16 09:12:11;;;;;;;18.95;12.80;;;153.80;2252.80;;;;;;5052119;28;20029;-80
2023/03/16 09:14:38;;;;;;;14.93;11.65;;;153.80;2252.80;;;;;;5051965;28;20029;-81
2023/03/16 09:17:06;;;;;;;26.30;18.75;;;153.80;2252.80;;;;;;5052189;28;20029;-79
2023/03/16 09:19:32;;;;;;;16.88;11.55;;;153.80;2252.80;;;;;;5052091;28;20032;-80
2023/03/16 09:21:59;;;;;;;19.85;13.27;;;153.80;2252.80;;;;;;5053119;28;20047;-80
2023/03/16 09:24:25;;;;;;;15.18;10.07;;;153.80;2252.80;;;;;;5051957;28;20071;-79
2023/03/16 09:26:51;;;;;;;12.27;9.00;;;153.70;2252.80;;;;;;5052198;28;20060;-79
2023/03/16 09:29:17;;;;;;;31.48;16.35;;;153.70;2252.80;;;;;;5051749;28;20028;-79
2023/03/16 09:31:45;;;;;;;15.95;10.95;;;153.80;2252.80;;;;;;5051988;28;20172;-79
2023/03/16 09:34:10;;;;;;;16.17;11.25;;;153.80;2252.80;;;;;;5051953;28;20033;-80
2023/03/16 09:36:36;;;;;;;17.70;12.10;;;153.80;2252.80;;;;;;5051611;28;20029;-78
2023/03/16 09:39:03;;;;;;;18.40;12.10;;;153.70;2252.80;;;;;;5051669;28;20127;-79
2023/03/16 09:41:47;;;;;;;23.20;14.95;;;153.60;2252.80;;;;;;5051643;28;20380;-78
2023/03/16 09:44:32;;;;;;;28.25;18.33;;;153.80;2252.80;;;;;;5052034;28;20036;-78
2023/03/16 09:47:00;;;;;;;20.65;12.65;;;153.80;2252.80;;;;;;5051642;28;20123;-80
2023/03/16 09:49:31;;;;;;;17.83;10.85;;;153.80;2252.80;;;;;;5052677;28;20085;-79
2023/03/16 09:52:34;;;;;;;12.60;9.40;;;153.80;2252.80;;;;;;5068908;28;20027;-79
2023/03/16 09:55:11;;;;;;;17.73;11.23;;;153.80;2252.80;;;;;;5054120;28;20079;-78
2023/03/16 09:57:41;;;;;;;21.63;17.00;;;153.80;2252.80;;;;;;5055244;28;20390;-78
2023/03/16 10:00:14;;;;;;;16.13;10.18;;;153.90;2252.80;;;;;;5072634;28;20461;-79
2023/03/16 10:02:49;;;;;;;18.17;11.30;;;153.90;2252.80;;;;;;5063061;28;20032;-75
2023/03/16 10:05:21;;;;;;;19.52;11.23;;;153.90;2252.80;;;;;;5064323;28;20074;-76
2023/03/16 10:08:11;;;;;;;23.27;14.00;;;154.00;2252.80;;;;;;5070841;28;20024;-77
2023/03/16 10:10:48;;;;;;;16.52;11.90;;;154.10;2252.80;;;;;;5048646;28;20099;-79
2023/03/16 10:13:34;;;;;;;20.65;12.02;;;154.20;2252.80;;;;;;5063154;28;20032;-79
2023/03/16 10:16:10;;;;;;;15.27;11.75;;;154.20;2252.80;;;;;;5072557;28;20112;-76
2023/03/16 10:18:43;;;;;;;20.77;8.88;;;154.20;2252.80;;;;;;5067422;28;20052;-78
2023/03/16 10:21:18;;;;;;;16.42;10.38;;;154.00;2252.80;;;;;;5060491;28;20025;-78
2023/03/16 10:23:48;;;;;;;16.42;9.82;;;154.10;2252.80;;;;;;5061662;28;20040;-76
2023/03/16 10:26:23;;;;;;;17.63;9.52;;;154.20;2252.80;;;;;;5057795;28;20384;-78
2023/03/16 10:28:51;;;;;;;20.40;11.85;;;154.20;2252.80;;;;;;5059418;28;20033;-79
2023/03/16 10:31:21;;;;;;;20.83;13.52;;;154.30;2252.80;;;;;;5067407;28;20020;-80
2023/03/16 10:33:56;;;;;;;16.85;11.00;;;154.30;2252.80;;;;;;5058388;28;20078;-79
2023/03/16 10:36:32;;;;;;;12.82;8.43;;;154.30;2252.80;;;;;;5042590;28;20031;-80
2023/03/16 10:39:10;;;;;;;13.05;9.15;;;154.30;2252.80;;;;;;5063587;28;20028;-80
2023/03/16 10:41:39;;;;;;;21.85;13.63;;;154.30;2252.80;;;;;;5059975;28;20025;-81
2023/03/16 10:44:20;;;;;;;15.10;11.85;;;154.30;2252.80;;;;;;5072632;28;20139;-79
2023/03/16 10:47:04;;;;;;;17.80;12.18;;;154.40;2252.80;;;;;;5066592;28;20025;-79
2023/03/16 10:49:47;;;;;;;15.70;9.02;;;154.40;2252.80;;;;;;5067946;28;20028;-80
2023/03/16 10:52:33;;;;;;;37.22;25.15;;;154.30;2252.80;;;;;;5057445;28;20032;-82
2023/03/16 10:55:29;;;;;;;30.88;19.10;;;154.50;2252.80;;;;;;5055381;28;20044;-79
2023/03/16 10:57:56;;;;;;;17.98;11.65;;;154.40;2252.80;;;;;;5054649;28;20029;-80
2023/03/16 11:00:27;;;;;;;18.60;13.80;;;154.40;2252.80;;;;;;5074035;28;20028;-81
2023/03/16 11:02:54;;;;;;;21.80;14.05;;;154.50;2252.80;;;;;;5057288;28;20523;-78
2023/03/16 11:05:31;;;;;;;18.77;11.25;;;154.50;2252.80;;;;;;5066225;28;20082;-80
2023/03/16 11:08:01;;;;;;;26.42;16.77;;;154.50;2252.80;;;;;;5056289;28;20025;-81
2023/03/16 11:10:34;;;;;;;30.83;19.30;;;154.50;2252.80;;;;;;5073263;28;20587;-81
2023/03/16 11:13:08;;;;;;;23.05;14.02;;;154.50;2252.80;;;;;;5073651;28;20029;-81
2023/03/16 11:16:01;;;;;;;21.48;13.35;;;154.50;2252.80;;;;;;5059584;28;20064;-81
2023/03/16 11:18:34;;;;;;;18.02;11.85;;;154.50;2252.80;;;;;;5044945;28;20028;-81
2023/03/16 11:21:18;;;;;;;25.48;15.00;;;154.40;2252.80;;;;;;5073541;28;20031;-80
2023/03/16 11:23:50;;;;;;;25.50;18.08;;;154.40;2252.80;;;;;;5057796;28;20124;-78
2023/03/16 11:26:22;;;;;;;28.65;16.85;;;154.40;2252.80;;;;;;5070077;28;20376;-79
2023/03/16 11:28:55;;;;;;;17.40;10.00;;;154.50;2252.80;;;;;;5053404;28;20108;-81
2023/03/16 11:32:11;;;;;;;17.38;11.40;;;154.50;2252.80;;;;;;5065731;28;20369;-81
2023/03/16 11:34:37;;;;;;;26.92;16.63;;;154.50;2252.80;;;;;;5021823;28;20029;-78
2023/03/16 11:37:09;;;;;;;21.60;13.70;;;179.20;2252.80;;;;;;5035334;28;20056;-79
2023/03/16 11:39:52;;;;;;;15.20;9.13;;;179.20;2252.80;;;;;;5044637;28;20037;-80
2023/03/16 11:42:30;;;;;;;12.50;7.45;;;179.30;2252.80;;;;;;5041699;28;20044;-79
2023/03/16 11:45:17;;;;;;;17.00;9.63;;;179.30;2252.80;;;;;;5064036;28;20051;-82
2023/03/16 11:47:48;;;;;;;23.70;12.35;;;179.40;2252.80;;;;;;5068415;28;20027;-81
2023/03/16 11:50:40;;;;;;;17.75;13.20;;;179.50;2252.80;;;;;;5054764;28;20502;-81
2023/03/16 11:53:38;;;;;;;23.88;12.93;;;179.50;2252.80;;;;;;5072406;28;20039;-81
2023/03/16 11:56:23;;;;;;;26.75;14.55;;;179.60;2252.80;;;;;;5053906;28;20427;-80
2023/03/16 11:59:01;;;;;;;36.63;21.52;;;179.70;2252.80;;;;;;5061576;28;20024;-80
2023/03/16 12:01:32;;;;;;;29.80;19.75;;;179.70;2252.80;;;;;;5058480;28;20021;-80
2023/03/16 12:04:19;;;;;;;19.60;11.50;;;179.60;2252.80;;;;;;5068867;28;20036;-82
2023/03/16 12:07:04;;;;;;;29.17;18.92;;;179.60;2252.80;;;;;;5059584;28;20021;-81
2023/03/16 12:09:57;;;;;;;30.50;18.25;;;179.60;2252.80;;;;;;5058879;28;20098;-78
2023/03/16 12:12:22;;;;;;;;;;;179.70;2252.80;;;;;;5057432;28;20107;-81
2023/03/16 12:15:26;;;;;;;13.00;7.68;;;179.80;2252.80;;;;;;5064613;28;20050;-79
2023/03/16 12:17:54;;;;;;;;;;;179.70;2252.80;;;;;;5069183;28;20033;-79
2023/03/16 12:20:44;;;;;;;15.80;10.70;;;179.70;2252.80;;;;;;5052012;28;19916;-79
2023/03/16 12:23:21;;;;;;;19.73;11.02;;;179.60;2252.80;;;;;;5063219;28;20522;-79